Time;durP1;ratioP1;P1;durP2;ratioP2;P2;SDS_P1;SDS_P2;PMS_P1;PMS_P2;Temp;Humidity;BMP_temperature;BMP_pressure;BME280_temperature;BME280_humidity;BME280_pressure;Samples;Min_cycle;Max_cycle;Signal;HPM_P1;HPM_P2
2021/10/13 00:01:50;;;;;;;;;58.50;50.00;;;;;12.91;77.80;100623.16;5015481;28;11627;-71
2021/10/13 00:04:45;;;;;;;;;61.00;49.75;;;;;12.77;78.34;100621.53;5015289;28;11571;-71
2021/10/13 00:07:41;;;;;;;;;48.75;40.25;;;;;12.74;78.63;100621.44;5029980;28;11544;-72
2021/10/13 00:10:36;;;;;;;;;48.25;42.50;;;;;12.82;78.47;100625.25;5033681;28;11666;-71
2021/10/13 00:13:32;;;;;;;;;51.50;42.25;;;;;12.69;78.83;100625.25;5034425;28;11649;-71
2021/10/13 00:16:30;;;;;;;;;52.00;44.25;;;;;12.76;78.64;100624.66;5053948;28;11583;-72
2021/10/13 00:19:27;;;;;;;;;51.00;44.50;;;;;12.72;78.59;100618.19;5053866;28;11564;-72
2021/10/13 00:22:22;;;;;;;;;52.50;43.25;;;;;12.76;78.43;100611.59;5054547;28;11621;-71
2021/10/13 00:25:18;;;;;;;;;59.00;47.75;;;;;12.74;78.45;100619.47;5053497;28;11681;-71
2021/10/13 00:27:45;;;;;;;;;56.75;48.00;;;;;12.67;78.65;100615.66;5037315;28;11689;-71
2021/10/13 00:30:41;;;;;;;;;54.25;45.25;;;;;12.66;78.83;100625.16;5053517;28;11612;-71
2021/10/13 00:33:37;;;;;;;;;59.25;49.50;;;;;12.73;78.64;100619.84;5053451;28;11599;-71
2021/10/13 00:36:32;;;;;;;;;64.50;51.25;;;;;12.80;78.09;100615.31;5054331;28;11601;-71
2021/10/13 00:39:29;;;;;;;;;69.25;56.25;;;;;12.79;78.29;100618.41;5053750;28;11811;-71
2021/10/13 00:42:25;;;;;;;;;70.50;58.25;;;;;12.58;78.88;100623.28;5040199;28;11637;-71
2021/10/13 00:45:21;;;;;;;;;74.25;60.00;;;;;12.82;77.80;100620.50;5053504;28;11743;-71
2021/10/13 00:48:16;;;;;;;;;83.50;72.50;;;;;12.73;77.66;100634.50;5053505;28;11633;-71
2021/10/13 00:51:13;;;;;;;;;87.75;77.50;;;;;12.68;78.07;100622.81;5053371;28;11592;-71
2021/10/13 00:54:09;;;;;;;;;88.00;79.00;;;;;12.55;78.38;100621.19;5039834;28;11638;-72
2021/10/13 00:56:50;;;;;;;;;85.00;76.50;;;;;12.51;78.79;100624.66;5054404;28;11645;-72
2021/10/13 00:59:18;;;;;;;;;84.75;74.25;;;;;12.54;78.82;100623.16;5054242;28;12377;-71
2021/10/13 01:02:31;;;;;;;;;87.00;78.00;;;;;12.61;78.19;100625.38;5033356;28;11773;-72
2021/10/13 01:05:30;;;;;;;;;88.25;81.75;;;;;12.49;78.49;100617.81;5047260;28;12503;-71
2021/10/13 01:08:51;;;;;;;;;86.75;76.50;;;;;12.58;78.37;100603.88;5052946;28;11751;-71
2021/10/13 01:12:04;;;;;;;;;88.50;74.50;;;;;12.32;79.45;100595.84;5052901;28;11632;-72
2021/10/13 01:15:09;;;;;;;;;79.25;63.50;;;;;12.53;78.40;100593.81;5052823;28;11641;-72
2021/10/13 01:17:49;;;;;;;;;73.75;59.50;;;;;12.50;78.55;100595.31;5036609;28;11700;-71
2021/10/13 01:20:57;;;;;;;;;77.50;60.75;;;;;12.41;78.92;100589.03;5032970;28;11596;-71
2021/10/13 01:24:05;;;;;;;;;64.00;51.25;;;;;12.44;79.00;100591.16;5032789;28;11635;-71
2021/10/13 01:27:30;;;;;;;;;80.50;68.25;;;;;12.42;78.78;100599.00;5032791;28;11635;-72
2021/10/13 01:30:32;;;;;;;;;82.75;63.50;;;;;12.32;79.40;100606.97;5042176;28;11663;-71
2021/10/13 01:33:35;;;;;;;;;54.75;45.50;;;;;12.34;79.45;100608.22;5053390;28;11644;-71
2021/10/13 01:36:38;;;;;;;;;54.25;44.50;;;;;12.35;79.78;100595.19;5059435;28;11643;-71
2021/10/13 01:39:39;;;;;;;;;55.50;45.00;;;;;12.28;79.99;100584.66;5053134;28;11535;-71
2021/10/13 01:42:09;;;;;;;;;52.50;45.00;;;;;12.34;79.76;100574.94;5053879;28;11577;-71
2021/10/13 01:45:06;;;;;;;;;52.50;42.75;;;;;12.27;80.16;100571.13;5039770;28;11536;-71
2021/10/13 01:48:04;;;;;;;;;53.75;46.25;;;;;12.25;80.31;100563.97;5038898;28;11639;-71
2021/10/13 01:50:48;;;;;;;;;43.00;38.75;;;;;12.31;80.00;100575.66;5053177;28;11605;-72
2021/10/13 01:53:46;;;;;;;;;39.00;37.00;;;;;12.25;80.06;100566.72;5052139;28;11681;-71
2021/10/13 01:56:44;;;;;;;;;37.75;36.50;;;;;12.32;80.23;100576.44;5019040;28;11545;-71
2021/10/13 01:59:41;;;;;;;;;36.25;34.75;;;;;12.37;80.01;100568.72;5035238;28;11655;-70
2021/10/13 02:02:40;;;;;;;;;39.25;37.00;;;;;12.29;80.23;100572.41;5053829;28;12338;-70
2021/10/13 02:05:38;;;;;;;;;52.50;44.00;;;;;12.32;80.14;100565.34;5038713;28;11555;-70
2021/10/13 02:08:36;;;;;;;;;35.00;34.00;;;;;12.41;79.85;100566.06;5052801;28;11555;-70
2021/10/13 02:11:12;;;;;;;;;47.00;42.25;;;;;12.48;79.56;100574.59;5052812;28;11544;-70
2021/10/13 02:14:06;;;;;;;;;43.50;38.00;;;;;12.40;80.26;100570.78;5037370;28;11621;-71
2021/10/13 02:16:36;;;;;;;;;37.75;36.75;;;;;12.38;80.17;100570.34;5052560;28;11630;-71
2021/10/13 02:19:32;;;;;;;;;37.00;35.00;;;;;12.46;79.68;100569.41;5051760;28;11541;-71
2021/10/13 02:22:31;;;;;;;;;36.00;35.50;;;;;12.56;79.33;100561.78;5038414;28;11558;-71
2021/10/13 02:25:35;;;;;;;;;39.50;37.25;;;;;12.44;79.82;100566.19;5052502;28;11731;-71
2021/10/13 02:28:37;;;;;;;;;36.50;35.75;;;;;12.46;79.66;100572.19;5051738;28;11515;-71
2021/10/13 02:31:33;;;;;;;;;37.50;36.25;;;;;12.48;79.55;100569.06;5038231;28;11537;-71
2021/10/13 02:34:28;;;;;;;;;36.75;35.50;;;;;12.45;79.67;100569.75;5038415;28;11683;-71
2021/10/13 02:37:24;;;;;;;;;36.00;35.00;;;;;12.43;79.66;100578.44;5051998;28;11527;-71
2021/10/13 02:40:20;;;;;;;;;34.00;33.75;;;;;12.45;79.48;100584.44;5051681;28;11648;-71
2021/10/13 02:42:48;;;;;;;;;38.75;37.00;;;;;12.56;79.07;100581.19;5034796;28;11586;-71
2021/10/13 02:45:49;;;;;;;;;33.25;33.00;;;;;12.57;79.07;100577.25;5050921;28;11385;-71
2021/10/13 02:48:52;;;;;;;;;45.50;39.25;;;;;12.49;79.28;100554.03;5019320;28;11382;-71
2021/10/13 02:52:19;;;;;;;;;37.50;35.00;;;;;12.48;79.21;100550.44;5051631;28;12460;-71
2021/10/13 02:55:25;;;;;;;;;39.50;37.00;;;;;12.32;79.66;100546.75;5051136;28;11318;-71
2021/10/13 02:58:27;;;;;;;;;47.50;42.00;;;;;12.30;79.81;100546.31;5051517;28;11660;-71
2021/10/13 03:01:28;;;;;;;;;47.50;39.00;;;;;12.39;79.76;100540.63;5051362;28;11568;-71
2021/10/13 03:04:28;;;;;;;;;45.25;40.25;;;;;12.34;79.72;100549.97;5051470;28;11542;-71
2021/10/13 03:07:28;;;;;;;;;37.25;35.50;;;;;12.27;79.96;100544.22;5054960;28;11664;-70
2021/10/13 03:10:25;;;;;;;;;37.75;36.00;;;;;12.32;79.78;100527.34;5073421;28;12435;-70
2021/10/13 03:13:27;;;;;;;;;39.50;37.00;;;;;12.32;79.65;100538.44;5054980;28;11518;-71
2021/10/13 03:16:23;;;;;;;;;38.25;36.25;;;;;12.38;79.74;100552.88;5055024;28;11667;-71
2021/10/13 03:19:21;;;;;;;;;44.25;40.00;;;;;12.27;79.94;100557.25;5055000;28;11538;-70
2021/10/13 03:22:18;;;;;;;;;41.75;37.75;;;;;12.15;80.46;100549.75;5041714;28;11523;-71
2021/10/13 03:25:25;;;;;;;;;54.25;46.25;;;;;12.14;80.19;100548.94;5055095;28;11528;-71
2021/10/13 03:28:21;;;;;;;;;39.50;36.50;;;;;12.11;80.40;100543.25;5055245;28;12268;-71
2021/10/13 03:31:17;;;;;;;;;54.00;45.00;;;;;11.98;80.48;100533.34;5041599;28;11526;-71
2021/10/13 03:33:49;;;;;;;;;54.75;43.75;;;;;12.00;80.43;100539.34;5055709;28;11560;-70
2021/10/13 03:36:16;;;;;;;;;54.25;45.25;;;;;12.09;79.77;100529.75;5055639;28;11547;-70
2021/10/13 03:38:45;;;;;;;;;52.00;43.75;;;;;12.01;79.47;100524.31;5055979;28;11540;-70
2021/10/13 03:41:41;;;;;;;;;58.25;48.50;;;;;12.04;79.12;100516.16;5041127;28;11607;-70
2021/10/13 03:44:37;;;;;;;;;58.75;49.75;;;;;11.85;80.11;100511.13;5054739;28;11630;-70
2021/10/13 03:47:33;;;;;;;;;58.25;48.50;;;;;11.76;80.43;100515.94;5041083;28;12454;-70
2021/10/13 03:50:00;;;;;;;;;57.50;48.00;;;;;11.79;80.66;100528.28;5055514;28;11620;-70
2021/10/13 03:52:56;;;;;;;;;51.75;44.25;;;;;11.62;81.33;100518.22;5054436;28;11639;-70
2021/10/13 03:55:52;;;;;;;;;57.50;47.25;;;;;11.76;81.50;100501.28;5041154;28;11584;-70
2021/10/13 03:58:47;;;;;;;;;51.50;43.25;;;;;11.73;82.20;100499.19;5054537;28;11615;-71
2021/10/13 04:01:43;;;;;;;;;50.25;43.50;;;;;11.85;81.87;100488.16;5054388;28;11529;-71
2021/10/13 04:04:39;;;;;;;;;58.75;48.75;;;;;11.89;81.80;100505.72;5054246;28;11565;-71
2021/10/13 04:07:35;;;;;;;;;45.75;40.75;;;;;11.78;81.65;100497.00;5054074;28;11602;-70
2021/10/13 04:10:31;;;;;;;;;53.50;46.00;;;;;11.78;81.87;100496.19;5040665;28;11569;-70
2021/10/13 04:13:26;;;;;;;;;52.75;44.50;;;;;11.70;81.96;100495.16;5055570;28;11605;-71
2021/10/13 04:16:22;;;;;;;;;64.50;49.00;;;;;11.72;82.30;100494.78;5039605;28;11592;-70
2021/10/13 04:19:17;;;;;;;;;56.50;47.75;;;;;11.99;81.90;100493.38;5054207;28;11584;-70
2021/10/13 04:22:13;;;;;;;;;63.00;52.25;;;;;12.06;82.53;100485.31;5041986;28;11601;-70
2021/10/13 04:25:09;;;;;;;;;55.50;47.75;;;;;12.10;82.11;100489.78;5040614;28;11629;-70
2021/10/13 04:28:04;;;;;;;;;57.00;47.50;;;;;12.30;81.74;100488.06;5052391;28;11663;-69
2021/10/13 04:31:00;;;;;;;;;57.75;49.00;;;;;12.35;81.14;100489.81;5045070;28;11649;-70
2021/10/13 04:33:55;;;;;;;;;57.00;48.00;;;;;12.41;81.02;100483.66;5039869;28;11605;-70
2021/10/13 04:36:51;;;;;;;;;55.00;46.25;;;;;12.57;80.82;100480.16;5033916;28;11684;-70
2021/10/13 04:39:47;;;;;;;;;59.75;50.25;;;;;12.47;81.21;100471.19;5033861;28;11620;-71
2021/10/13 04:42:42;;;;;;;;;59.75;50.25;;;;;12.58;80.91;100467.94;5020335;28;11627;-70
2021/10/13 04:45:38;;;;;;;;;63.75;53.00;;;;;12.50;81.03;100478.81;5043756;28;11608;-70
2021/10/13 04:48:05;;;;;;;;;59.25;49.50;;;;;12.57;80.93;100486.53;5054066;28;11618;-70
2021/10/13 04:50:34;;;;;;;;;58.50;47.50;;;;;12.66;80.66;100475.31;5036929;28;11625;-70
2021/10/13 04:53:02;;;;;;;;;64.75;53.00;;;;;12.74;80.51;100475.19;5054296;28;11616;-70
2021/10/13 04:55:30;;;;;;;;;65.25;52.75;;;;;12.76;80.30;100488.72;5054168;28;11619;-70
2021/10/13 04:57:58;;;;;;;;;62.50;50.75;;;;;12.89;80.18;100493.06;5054423;28;11598;-70
2021/10/13 05:00:26;;;;;;;;;72.50;59.00;;;;;13.05;79.37;100491.16;5036718;28;11617;-71
2021/10/13 05:02:54;;;;;;;;;83.00;74.75;;;;;13.05;78.99;100504.25;5054215;28;11610;-70
2021/10/13 05:05:24;;;;;;;;;118.67;107.67;;;;;13.07;78.83;100499.94;5053980;28;11651;-71
2021/10/13 05:07:52;;;;;;;;;113.00;100.67;;;;;13.04;78.42;100495.09;5054192;28;8832;-70
2021/10/13 05:10:19;;;;;;;;;100.33;98.67;;;;;12.88;78.47;100502.56;5036611;28;8859;-70
2021/10/13 05:12:55;;;;;;;;;120.33;110.67;;;;;12.84;78.83;100484.97;5037668;28;8945;-70
2021/10/13 05:15:23;;;;;;;;;137.67;113.33;;;;;12.85;78.66;100475.50;5036538;28;8836;-70
2021/10/13 05:17:53;;;;;;;;;97.33;90.00;;;;;12.74;79.29;100468.84;5037094;28;8864;-70
2021/10/13 05:20:21;;;;;;;;;85.25;74.50;;;;;12.92;78.99;100474.91;5053875;28;8855;-70
2021/10/13 05:22:48;;;;;;;;;77.75;61.50;;;;;12.93;78.91;100468.19;5053582;28;11641;-70
2021/10/13 05:25:18;;;;;;;;;68.25;54.00;;;;;12.97;78.84;100464.38;5036423;28;11618;-70
2021/10/13 05:27:46;;;;;;;;;62.75;52.50;;;;;13.13;78.51;100466.38;5035031;28;11618;-70
2021/10/13 05:30:13;;;;;;;;;61.50;50.25;;;;;12.99;78.88;100456.47;5053349;28;11622;-71
2021/10/13 05:32:41;;;;;;;;;64.75;52.50;;;;;13.09;78.96;100455.97;5053594;28;11641;-70
2021/10/13 05:35:09;;;;;;;;;57.75;48.75;;;;;13.16;79.02;100446.22;5053306;28;11592;-70
2021/10/13 05:37:37;;;;;;;;;53.25;41.50;;;;;13.17;78.89;100459.75;5053578;28;11562;-70
2021/10/13 05:40:06;;;;;;;;;60.50;48.00;;;;;13.50;77.83;100453.97;5053246;28;11561;-70
2021/10/13 05:42:33;;;;;;;;;65.00;53.00;;;;;13.75;77.22;100468.50;5053401;28;11567;-69
2021/10/13 05:45:02;;;;;;;;;63.75;51.75;;;;;13.91;77.07;100468.50;5035984;28;11610;-70
2021/10/13 05:47:33;;;;;;;;;59.75;50.75;;;;;13.99;76.38;100486.97;5036098;28;12407;-69
2021/10/13 05:50:01;;;;;;;;;63.25;51.50;;;;;14.13;76.17;100498.47;5019463;28;11658;-70
2021/10/13 05:52:29;;;;;;;;;83.75;69.25;;;;;14.28;75.42;100501.59;5053507;28;11569;-70
2021/10/13 05:54:57;;;;;;;;;85.75;76.25;;;;;14.36;74.59;100495.03;5036234;28;11750;-70
2021/10/13 05:57:25;;;;;;;;;88.50;74.75;;;;;14.38;74.47;100481.56;5053140;28;11622;-70
2021/10/13 05:59:56;;;;;;;;;86.00;74.50;;;;;14.43;74.13;100479.31;5053141;28;11670;-70
2021/10/13 06:02:26;;;;;;;;;87.50;73.75;;;;;14.60;73.90;100469.78;5035441;28;11741;-70
2021/10/13 06:04:54;;;;;;;;;97.00;86.50;;;;;14.57;73.88;100470.53;5053069;28;11667;-70
2021/10/13 06:07:22;;;;;;;;;87.25;75.00;;;;;14.48;74.27;100456.00;5053130;28;11615;-70
2021/10/13 06:09:50;;;;;;;;;80.25;66.25;;;;;14.24;74.37;100448.66;5053232;28;11628;-71
2021/10/13 06:12:21;;;;;;;;;94.00;88.00;;;;;14.32;74.71;100446.84;5035043;28;11748;-71
2021/10/13 06:14:49;;;;;;;;;102.50;91.75;;;;;14.42;74.71;100437.97;5052858;28;12378;-71
2021/10/13 06:17:17;;;;;;;;;76.50;64.25;;;;;14.40;74.65;100443.06;5035410;28;12434;-71
2021/10/13 06:19:45;;;;;;;;;75.75;60.50;;;;;14.61;74.41;100432.44;5034884;28;11641;-71
2021/10/13 06:22:40;;;;;;;;;68.50;54.50;;;;;14.92;73.49;100433.50;5051351;28;11694;-70
2021/10/13 06:25:36;;;;;;;;;60.75;47.75;;;;;15.07;72.91;100434.59;5051894;28;12320;-72
2021/10/13 06:28:31;;;;;;;;;57.00;48.00;;;;;15.36;72.32;100438.72;5050922;28;11669;-70
2021/10/13 06:31:27;;;;;;;;;56.25;46.00;;;;;15.38;71.41;100447.53;5046684;28;11657;-71
2021/10/13 06:33:55;;;;;;;;;52.50;44.00;;;;;15.52;71.39;100447.78;5051944;28;11253;-70
2021/10/13 06:36:36;;;;;;;;;54.75;46.25;;;;;15.65;70.81;100440.91;5052592;28;11038;-70
2021/10/13 06:39:05;;;;;;;;;55.00;46.00;;;;;15.58;70.63;100443.53;5035333;28;11617;-71
2021/10/13 06:42:00;;;;;;;;;62.50;50.00;;;;;15.56;70.65;100438.34;5028990;28;11077;-70
2021/10/13 06:44:56;;;;;;;;;69.50;55.00;;;;;15.55;70.78;100444.25;5042295;28;11583;-71
2021/10/13 06:47:37;;;;;;;;;65.00;53.00;;;;;15.67;70.54;100437.75;5050906;28;11556;-70
2021/10/13 06:50:33;;;;;;;;;60.00;49.50;;;;;15.71;70.28;100436.59;5040208;28;11326;-70
2021/10/13 06:53:29;;;;;;;;;60.50;49.75;;;;;15.85;70.20;100427.69;5042050;28;11575;-71
2021/10/13 06:56:25;;;;;;;;;62.75;50.75;;;;;15.87;69.80;100427.31;5054669;28;11263;-71
2021/10/13 06:59:20;;;;;;;;;58.00;49.00;;;;;16.11;69.43;100422.16;5055032;28;11549;-71
2021/10/13 07:02:17;;;;;;;;;49.25;42.50;;;;;16.07;69.57;100421.28;5045386;28;11315;-70
2021/10/13 07:05:13;;;;;;;;;59.00;49.00;;;;;16.19;69.35;100425.06;5056015;28;11018;-69
2021/10/13 07:08:08;;;;;;;;;61.50;49.75;;;;;16.42;68.56;100427.78;5042324;28;11118;-71
2021/10/13 07:11:06;;;;;;;;;52.25;43.25;;;;;16.44;69.17;100426.22;5055089;28;11269;-70
2021/10/13 07:14:06;;;;;;;;;52.50;43.25;;;;;16.25;68.76;100427.13;5054475;28;10726;-72
2021/10/13 07:17:02;;;;;;;;;47.50;37.75;;;;;16.53;68.29;100428.72;5054648;28;10705;-71
2021/10/13 07:19:59;;;;;;;;;53.75;46.25;;;;;16.50;68.28;100415.53;5055886;28;10671;-71
2021/10/13 07:22:55;;;;;;;;;50.75;43.00;;;;;16.67;67.72;100426.94;5054544;28;11033;-71
2021/10/13 07:25:52;;;;;;;;;53.25;44.75;;;;;16.98;66.97;100432.53;5054784;28;10560;-73
2021/10/13 07:28:48;;;;;;;;;52.75;43.00;;;;;17.07;66.93;100428.25;5054787;28;10565;-71
2021/10/13 07:31:15;;;;;;;;;47.25;40.00;;;;;17.35;66.52;100427.78;5037947;28;10426;-71
2021/10/13 07:34:11;;;;;;;;;66.00;51.25;;;;;17.68;64.84;100420.50;5041064;28;10737;-70
2021/10/13 07:37:06;;;;;;;;;58.25;47.50;;;;;17.80;63.56;100428.66;5054469;28;11106;-71
2021/10/13 07:40:04;;;;;;;;;53.75;46.00;;;;;17.96;63.41;100423.59;5054993;28;10532;-71
2021/10/13 07:43:00;;;;;;;;;56.25;46.00;;;;;18.19;61.91;100416.97;5053510;28;11066;-71
2021/10/13 07:45:57;;;;;;;;;56.50;46.50;;;;;18.30;62.30;100426.22;5041053;28;10734;-71
2021/10/13 07:48:52;;;;;;;;;64.50;49.75;;;;;18.16;62.17;100412.13;5053900;28;10529;-71
2021/10/13 07:51:48;;;;;;;;;62.50;50.00;;;;;18.45;61.21;100399.94;5043413;28;10679;-71
2021/10/13 07:54:16;;;;;;;;;65.00;52.75;;;;;18.30;61.58;100404.63;5054686;28;10656;-72
2021/10/13 07:57:11;;;;;;;;;62.50;48.00;;;;;18.23;61.83;100398.19;5053996;28;10817;-71
2021/10/13 08:00:08;;;;;;;;;53.25;45.00;;;;;18.25;61.86;100381.84;5053774;28;10581;-71
2021/10/13 08:02:35;;;;;;;;;72.00;57.50;;;;;18.36;61.58;100371.50;5037340;28;10849;-72
2021/10/13 08:05:31;;;;;;;;;55.50;46.25;;;;;18.48;61.30;100376.75;5054799;28;11344;-72
2021/10/13 08:08:26;;;;;;;;;55.50;46.00;;;;;18.82;59.99;100368.13;5040658;28;10289;-72
2021/10/13 08:11:22;;;;;;;;;64.00;49.75;;;;;19.18;59.67;100383.06;5052843;28;10779;-72
2021/10/13 08:14:18;;;;;;;;;57.75;48.00;;;;;19.46;58.72;100385.09;5052274;28;10462;-72
2021/10/13 08:17:13;;;;;;;;;50.75;42.50;;;;;19.53;57.67;100382.31;5053927;28;10359;-72
2021/10/13 08:20:11;;;;;;;;;48.00;40.75;;;;;19.73;57.29;100371.53;5053659;28;9935;-72
2021/10/13 08:23:06;;;;;;;;;46.50;38.50;;;;;19.83;57.40;100359.50;5053454;28;10449;-73
2021/10/13 08:26:03;;;;;;;;;51.00;42.00;;;;;20.00;57.37;100355.06;5040598;28;9708;-72
2021/10/13 08:28:58;;;;;;;;;45.75;39.75;;;;;20.14;56.86;100355.03;5039942;28;9485;-72
2021/10/13 08:31:54;;;;;;;;;51.50;43.00;;;;;20.00;56.75;100357.88;5053585;28;9525;-72
2021/10/13 08:34:22;;;;;;;;;40.00;35.33;;;;;19.92;57.20;100348.66;5054644;28;9816;-71
2021/10/13 08:37:17;;;;;;;;;38.50;34.50;;;;;19.85;57.93;100350.66;5053707;28;9097;-72
2021/10/13 08:40:13;;;;;;;;;45.00;37.00;;;;;20.22;57.29;100353.03;5039165;28;8847;-72
2021/10/13 08:42:54;;;;;;;;;50.67;41.33;;;;;20.03;57.29;100347.88;5041229;28;9049;-72
2021/10/13 08:45:24;;;;;;;;;32.25;31.25;;;;;20.27;56.31;100353.41;5054242;28;9351;-71
2021/10/13 08:47:52;;;;;;;;;22.00;22.00;;;;;20.44;56.32;100348.19;5053967;28;8840;-71
2021/10/13 08:50:20;;;;;;;;;25.75;25.75;;;;;20.57;55.77;100354.16;5052563;28;8883;-72
2021/10/13 08:53:20;;;;;;;;;39.25;34.50;;;;;20.87;55.14;100356.44;5053042;28;8836;-72
2021/10/13 08:56:16;;;;;;;;;30.00;29.00;;;;;21.18;55.04;100358.28;5053398;28;8832;-72
2021/10/13 08:59:41;;;;;;;;;25.25;25.25;;;;;21.15;54.57;100356.28;5065028;28;8971;-73
2021/10/13 09:02:10;;;;;;;;;64.75;40.25;;;;;20.96;54.31;100351.97;5053948;28;8966;-72
2021/10/13 09:05:20;;;;;;;;;24.50;24.50;;;;;21.20;55.28;100355.03;5065521;28;9002;-72
2021/10/13 09:08:17;;;;;;;;;19.00;19.00;;;;;21.54;52.93;100361.66;5052775;28;8933;-72
2021/10/13 09:11:28;;;;;;;;;21.75;20.50;;;;;22.04;52.17;100349.97;5031667;28;8857;-71
2021/10/13 09:14:28;;;;;;;;;22.25;22.25;;;;;22.22;51.43;100337.75;5033874;28;8870;-72
2021/10/13 09:17:23;;;;;;;;;20.75;20.75;;;;;22.50;50.79;100343.06;5033545;28;8846;-72
2021/10/13 09:20:21;;;;;;;;;16.25;16.25;;;;;22.52;50.13;100340.63;5033342;28;8838;-72
2021/10/13 09:23:17;;;;;;;;;17.50;17.50;;;;;22.80;49.65;100338.66;5032188;28;8956;-71
2021/10/13 09:26:13;;;;;;;;;21.33;21.33;;;;;22.79;49.52;100337.06;5031488;28;8846;-71
2021/10/13 09:29:09;;;;;;;;;18.25;18.25;;;;;22.14;50.76;100337.81;5033492;28;8951;-72
2021/10/13 09:32:05;;;;;;;;;21.00;21.00;;;;;22.47;50.87;100339.06;5019169;28;8854;-71
2021/10/13 09:35:00;;;;;;;;;19.00;19.00;;;;;22.14;50.87;100332.19;5032915;28;8964;-71
2021/10/13 09:37:50;;;;;;;;;16.50;16.50;;;;;22.01;51.44;100333.13;5044694;28;8860;-71
2021/10/13 09:40:49;;;;;;;;;16.50;16.50;;;;;21.51;52.76;100331.53;5019470;28;9627;-72
2021/10/13 09:43:45;;;;;;;;;17.00;17.00;;;;;21.44;52.85;100316.72;5018961;28;8846;-71
2021/10/13 09:46:41;;;;;;;;;19.50;19.50;;;;;21.17;53.62;100299.66;5032449;28;8901;-72
2021/10/13 09:49:37;;;;;;;;;18.75;18.50;;;;;21.36;53.55;100274.59;5032237;28;9008;-72
2021/10/13 09:52:33;;;;;;;;;16.50;16.25;;;;;21.75;53.39;100261.38;5032248;28;8850;-72
2021/10/13 09:55:36;;;;;;;;;17.00;17.00;;;;;21.93;52.50;100253.56;5032216;28;8866;-72
2021/10/13 09:58:36;;;;;;;;;20.50;20.00;;;;;22.01;51.61;100274.00;5032228;28;8850;-72
2021/10/13 10:01:32;;;;;;;;;17.75;17.75;;;;;22.36;50.89;100258.72;5032236;28;8872;-73
2021/10/13 10:04:34;;;;;;;;;7.50;7.50;;;;;22.08;51.32;100240.13;5032281;28;8968;-72
2021/10/13 10:07:34;;;;;;;;;20.75;20.75;;;;;22.51;50.61;100256.50;5020213;28;8855;-72
2021/10/13 10:10:31;;;;;;;;;24.00;23.50;;;;;22.72;50.01;100273.94;5034314;28;8865;-72
2021/10/13 10:13:42;;;;;;;;;19.25;19.25;;;;;22.53;50.55;100285.84;5044088;28;8855;-72
2021/10/13 10:16:38;;;;;;;;;17.50;17.50;;;;;22.37;50.73;100277.22;5051055;28;8994;-71
2021/10/13 10:19:41;;;;;;;;;15.00;14.25;;;;;22.40;51.09;100260.28;5051181;28;9675;-73
2021/10/13 10:22:45;;;;;;;;;16.00;15.75;;;;;22.18;52.18;100276.63;5038315;28;8855;-71
2021/10/13 10:25:41;;;;;;;;;31.00;25.00;;;;;22.20;51.86;100288.28;5051606;28;8840;-71
2021/10/13 10:28:52;;;;;;;;;15.50;15.50;;;;;22.13;51.93;100281.91;5051710;28;8843;-70
2021/10/13 10:31:58;;;;;;;;;16.75;16.75;;;;;22.25;52.60;100292.66;5051637;28;8828;-71
2021/10/13 10:35:02;;;;;;;;;14.75;14.75;;;;;22.18;52.33;100289.91;5047390;28;8850;-70
2021/10/13 10:38:04;;;;;;;;;15.50;14.25;;;;;22.12;52.48;100277.50;5050857;28;8874;-70
2021/10/13 10:41:10;;;;;;;;;14.25;14.25;;;;;21.86;53.20;100262.09;5033379;28;8885;-71
2021/10/13 10:44:47;;;;;;;;;18.25;18.25;;;;;21.76;53.71;100283.47;5043704;28;8911;-70
2021/10/13 10:47:50;;;;;;;;;14.75;14.75;;;;;21.36;54.55;100274.59;4958182;28;8937;-72
2021/10/13 10:50:52;;;;;;;;;20.75;20.75;;;;;21.47;54.28;100301.81;4951959;28;8851;-69
2021/10/13 10:53:49;;;;;;;;;18.50;18.00;;;;;21.23;54.70;100284.72;5031504;28;8870;-70
2021/10/13 10:56:44;;;;;;;;;13.50;13.50;;;;;20.81;56.00;100297.06;5032734;28;8900;-70
2021/10/13 10:59:40;;;;;;;;;18.00;18.00;;;;;20.85;55.91;100294.19;5049110;28;8966;-69
2021/10/13 11:02:36;;;;;;;;;13.50;13.50;;;;;20.76;56.55;100298.28;5061356;28;8918;-73
2021/10/13 11:05:32;;;;;;;;;16.00;16.00;;;;;20.73;56.36;100289.88;5058383;28;8980;-70
2021/10/13 11:08:27;;;;;;;;;17.25;16.75;;;;;20.44;56.44;100290.00;5056236;28;8936;-70
2021/10/13 11:11:25;;;;;;;;;16.75;16.75;;;;;20.42;56.68;100292.41;5052484;28;8864;-69
2021/10/13 11:14:25;;;;;;;;;17.00;16.50;;;;;20.41;56.41;100288.00;5031265;28;8862;-70
2021/10/13 11:17:24;;;;;;;;;18.25;18.25;;;;;20.73;55.67;100290.66;5037769;28;8857;-70
2021/10/13 11:20:25;;;;;;;;;19.00;19.00;;;;;21.13;55.21;100270.75;5051292;28;8887;-71
2021/10/13 11:23:24;;;;;;;;;14.75;14.75;;;;;21.00;54.71;100274.03;5052606;28;8861;-70
2021/10/13 11:26:25;;;;;;;;;18.00;18.00;;;;;20.81;55.27;100268.94;5052664;28;8895;-71
2021/10/13 11:29:27;;;;;;;;;22.75;22.75;;;;;20.53;56.11;100275.50;5058472;28;8872;-70
2021/10/13 11:32:23;;;;;;;;;26.00;24.50;;;;;20.66;55.46;100285.09;5048300;28;8888;-70
2021/10/13 11:35:20;;;;;;;;;21.25;21.25;;;;;20.51;56.33;100292.78;5054490;28;8882;-70
2021/10/13 11:38:19;;;;;;;;;25.00;25.00;;;;;20.54;56.34;100288.34;5052236;28;8876;-70
2021/10/13 11:41:15;;;;;;;;;30.25;29.75;;;;;20.45;56.55;100285.97;5055237;28;8843;-70
2021/10/13 11:44:11;;;;;;;;;29.50;28.50;;;;;20.51;55.97;100286.38;5054332;28;8952;-71
2021/10/13 11:47:07;;;;;;;;;35.75;32.75;;;;;20.32;56.68;100292.41;5054562;28;8982;-70
2021/10/13 11:50:10;;;;;;;;;26.75;26.75;;;;;20.38;56.50;100297.22;5054086;28;8847;-70
2021/10/13 11:52:40;;;;;;;;;29.50;29.00;;;;;20.44;56.35;100294.81;5055331;28;8859;-69
2021/10/13 11:55:37;;;;;;;;;31.75;30.75;;;;;20.51;56.61;100300.41;5051616;28;8856;-70
2021/10/13 11:58:05;;;;;;;;;41.75;35.50;;;;;20.40;56.48;100300.44;5053079;28;8988;-70
2021/10/13 12:01:01;;;;;;;;;49.33;42.00;;;;;20.30;56.92;100301.25;5051823;28;8873;-70
2021/10/13 12:03:56;;;;;;;;;37.33;34.67;;;;;20.36;56.57;100310.06;5053096;28;9264;-70
2021/10/13 12:06:52;;;;;;;;;35.00;32.75;;;;;20.45;56.25;100324.50;5052757;28;8933;-70
2021/10/13 12:10:00;;;;;;;;;39.25;34.75;;;;;20.52;56.46;100318.84;5039164;28;8844;-67
2021/10/13 12:13:04;;;;;;;;;39.67;35.00;;;;;20.43;56.61;100318.47;5052302;28;8854;-68
2021/10/13 12:16:06;;;;;;;;;32.33;31.33;;;;;20.19;57.61;100315.34;5053013;28;8929;-67
2021/10/13 12:19:11;;;;;;;;;39.67;35.33;;;;;20.15;57.72;100308.91;5052052;28;8952;-67
2021/10/13 12:22:07;;;;;;;;;41.25;36.25;;;;;20.14;57.62;100304.50;5039661;28;8921;-68
2021/10/13 12:25:21;;;;;;;;;35.00;32.25;;;;;20.18;57.89;100290.47;5051717;28;9703;-68
2021/10/13 12:28:23;;;;;;;;;35.67;32.33;;;;;20.27;57.51;100300.06;5050900;28;8942;-68
2021/10/13 12:31:27;;;;;;;;;37.00;33.33;;;;;20.17;57.62;100300.91;5048240;28;9178;-68
2021/10/13 12:34:24;;;;;;;;;36.25;33.75;;;;;20.12;58.43;100304.13;5052531;28;9020;-68
2021/10/13 12:37:23;;;;;;;;;39.25;35.50;;;;;20.16;58.42;100307.72;5050867;28;8878;-68
2021/10/13 12:40:19;;;;;;;;;32.25;30.50;;;;;20.16;58.32;100323.75;5050615;28;8863;-68
2021/10/13 12:43:20;;;;;;;;;33.00;30.75;;;;;20.13;58.67;100324.56;5051092;28;8855;-68
2021/10/13 12:46:32;;;;;;;;;35.00;32.00;;;;;20.17;58.48;100331.78;5050055;28;8843;-67
2021/10/13 12:49:33;;;;;;;;;23.50;21.75;;;;;20.10;58.74;100342.25;5049848;28;8862;-68
2021/10/13 12:52:30;;;;;;;;;35.25;31.50;;;;;20.01;59.26;100345.44;5051456;28;8820;-68
2021/10/13 12:55:26;;;;;;;;;28.00;28.00;;;;;20.03;59.30;100345.06;5051843;28;8863;-68
2021/10/13 12:58:27;;;;;;;;;32.75;29.75;;;;;20.00;59.18;100355.88;5051852;28;8836;-67
2021/10/13 13:01:22;;;;;;;;;34.00;31.00;;;;;19.96;59.53;100352.28;5051355;28;9010;-68
2021/10/13 13:04:19;;;;;;;;;26.50;26.50;;;;;20.05;59.60;100351.84;5050350;28;8816;-67